sensor_id;sensor_type;location;lat;lon;timestamp;P1;P2;P0
28647;PMS5003;17137;51.494;-0.262;2022-12-07T00:00:17;11;9;
28647;PMS5003;17137;51.494;-0.262;2022-12-07T00:00:47;11;9;
28647;PMS5003;17137;51.494;-0.262;2022-12-07T00:01:18;10;8;
28647;PMS5003;17137;51.494;-0.262;2022-12-07T00:01:50;10;9;
28647;PMS5003;17137;51.494;-0.262;2022-12-07T00:02:20;10;9;
28647;PMS5003;17137;51.494;-0.262;2022-12-07T00:02:50;10;9;
28647;PMS5003;17137;51.494;-0.262;2022-12-07T00:03:20;9;8;
28647;PMS5003;17137;51.494;-0.262;2022-12-07T00:03:51;9;8;
28647;PMS5003;17137;51.494;-0.262;2022-12-07T00:04:23;9;8;
28647;PMS5003;17137;51.494;-0.262;2022-12-07T00:04:53;12;9;
28647;PMS5003;17137;51.494;-0.262;2022-12-07T00:05:24;12;9;
28647;PMS5003;17137;51.494;-0.262;2022-12-07T00:05:56;12;9;
28647;PMS5003;17137;51.494;-0.262;2022-12-07T00:06:27;10;7;
28647;PMS5003;17137;51.494;-0.262;2022-12-07T00:06:57;10;7;
28647;PMS5003;17137;51.494;-0.262;2022-12-07T00:07:28;10;7;
28647;PMS5003;17137;51.494;-0.262;2022-12-07T00:07:58;11;8;
28647;PMS5003;17137;51.494;-0.262;2022-12-07T00:08:29;12;9;
28647;PMS5003;17137;51.494;-0.262;2022-12-07T00:09:00;12;9;
28647;PMS5003;17137;51.494;-0.262;2022-12-07T00:09:31;13;9;
28647;PMS5003;17137;51.494;-0.262;2022-12-07T00:10:01;13;9;
28647;PMS5003;17137;51.494;-0.262;2022-12-07T00:10:32;13;9;
28647;PMS5003;17137;51.494;-0.262;2022-12-07T00:11:03;12;9;
28647;PMS5003;17137;51.494;-0.262;2022-12-07T00:11:35;12;9;
28647;PMS5003;17137;51.494;-0.262;2022-12-07T00:12:06;12;9;
28647;PMS5003;17137;51.494;-0.262;2022-12-07T00:12:36;15;10;
28647;PMS5003;17137;51.494;-0.262;2022-12-07T00:13:06;15;10;
28647;PMS5003;17137;51.494;-0.262;2022-12-07T00:13:37;15;10;
28647;PMS5003;17137;51.494;-0.262;2022-12-07T00:14:10;15;11;
28647;PMS5003;17137;51.494;-0.262;2022-12-07T00:14:42;15;11;
28647;PMS5003;17137;51.494;-0.262;2022-12-07T00:15:12;15;11;
28647;PMS5003;17137;51.494;-0.262;2022-12-07T00:15:43;14;10;
28647;PMS5003;17137;51.494;-0.262;2022-12-07T00:16:14;14;10;
28647;PMS5003;17137;51.494;-0.262;2022-12-07T00:16:48;14;10;
28647;PMS5003;17137;51.494;-0.262;2022-12-07T00:17:20;14;11;
28647;PMS5003;17137;51.494;-0.262;2022-12-07T00:17:50;14;11;
28647;PMS5003;17137;51.494;-0.262;2022-12-07T00:18:20;14;11;
28647;PMS5003;17137;51.494;-0.262;2022-12-07T00:18:50;14;11;
28647;PMS5003;17137;51.494;-0.262;2022-12-07T00:19:21;13;10;
28647;PMS5003;17137;51.494;-0.262;2022-12-07T00:19:52;13;10;
28647;PMS5003;17137;51.494;-0.262;2022-12-07T00:20:22;13;9;
28647;PMS5003;17137;51.494;-0.262;2022-12-07T00:20:52;14;10;
28647;PMS5003;17137;51.494;-0.262;2022-12-07T00:21:23;14;10;
28647;PMS5003;17137;51.494;-0.262;2022-12-07T00:21:56;14;11;
28647;PMS5003;17137;51.494;-0.262;2022-12-07T00:22:26;14;11;
28647;PMS5003;17137;51.494;-0.262;2022-12-07T00:22:56;14;11;
28647;PMS5003;17137;51.494;-0.262;2022-12-07T00:23:26;13;11;
28647;PMS5003;17137;51.494;-0.262;2022-12-07T00:23:57;13;11;
28647;PMS5003;17137;51.494;-0.262;2022-12-07T00:24:28;13;11;
28647;PMS5003;17137;51.494;-0.262;2022-12-07T00:24:59;13;11;
28647;PMS5003;17137;51.494;-0.262;2022-12-07T00:25:29;13;11;
28647;PMS5003;17137;51.494;-0.262;2022-12-07T00:26:03;13;11;
28647;PMS5003;17137;51.494;-0.262;2022-12-07T00:26:35;13;10;
28647;PMS5003;17137;51.494;-0.262;2022-12-07T00:27:06;13;10;
28647;PMS5003;17137;51.494;-0.262;2022-12-07T00:27:37;13;10;
28647;PMS5003;17137;51.494;-0.262;2022-12-07T00:28:07;11;10;
28647;PMS5003;17137;51.494;-0.262;2022-12-07T00:28:37;11;10;
28647;PMS5003;17137;51.494;-0.262;2022-12-07T00:29:09;11;10;
28647;PMS5003;17137;51.494;-0.262;2022-12-07T00:29:44;11;10;
28647;PMS5003;17137;51.494;-0.262;2022-12-07T00:30:15;11;10;
28647;PMS5003;17137;51.494;-0.262;2022-12-07T00:30:45;11;10;
28647;PMS5003;17137;51.494;-0.262;2022-12-07T00:31:16;10;9;
28647;PMS5003;17137;51.494;-0.262;2022-12-07T00:31:48;10;9;
28647;PMS5003;17137;51.494;-0.262;2022-12-07T00:32:18;10;9;
28647;PMS5003;17137;51.494;-0.262;2022-12-07T00:32:49;11;9;
28647;PMS5003;17137;51.494;-0.262;2022-12-07T00:33:19;11;9;
28647;PMS5003;17137;51.494;-0.262;2022-12-07T00:33:49;11;9;
28647;PMS5003;17137;51.494;-0.262;2022-12-07T00:34:20;11;10;
28647;PMS5003;17137;51.494;-0.262;2022-12-07T00:34:51;11;10;
28647;PMS5003;17137;51.494;-0.262;2022-12-07T00:35:21;11;10;
28647;PMS5003;17137;51.494;-0.262;2022-12-07T00:35:54;10;10;
28647;PMS5003;17137;51.494;-0.262;2022-12-07T00:36:25;10;10;
28647;PMS5003;17137;51.494;-0.262;2022-12-07T00:36:56;10;10;
28647;PMS5003;17137;51.494;-0.262;2022-12-07T00:37:27;10;10;
28647;PMS5003;17137;51.494;-0.262;2022-12-07T00:37:57;10;10;
28647;PMS5003;17137;51.494;-0.262;2022-12-07T00:38:28;10;10;
28647;PMS5003;17137;51.494;-0.262;2022-12-07T00:39:00;8;8;
28647;PMS5003;17137;51.494;-0.262;2022-12-07T00:39:30;8;8;
28647;PMS5003;17137;51.494;-0.262;2022-12-07T00:40:00;8;8;
28647;PMS5003;17137;51.494;-0.262;2022-12-07T00:40:31;12;9;
28647;PMS5003;17137;51.494;-0.262;2022-12-07T00:41:02;12;9;
28647;PMS5003;17137;51.494;-0.262;2022-12-07T00:41:33;12;9;
28647;PMS5003;17137;51.494;-0.262;2022-12-07T00:42:04;10;8;
28647;PMS5003;17137;51.494;-0.262;2022-12-07T00:42:34;10;8;
28647;PMS5003;17137;51.494;-0.262;2022-12-07T00:43:04;10;8;
28647;PMS5003;17137;51.494;-0.262;2022-12-07T00:43:35;9;7;
28647;PMS5003;17137;51.494;-0.262;2022-12-07T00:44:05;10;8;
28647;PMS5003;17137;51.494;-0.262;2022-12-07T00:44:35;10;8;
28647;PMS5003;17137;51.494;-0.262;2022-12-07T00:45:06;10;8;
28647;PMS5003;17137;51.494;-0.262;2022-12-07T00:45:37;10;8;
28647;PMS5003;17137;51.494;-0.262;2022-12-07T00:46:08;10;8;
28647;PMS5003;17137;51.494;-0.262;2022-12-07T00:46:39;10;8;
28647;PMS5003;17137;51.494;-0.262;2022-12-07T00:47:09;10;8;
28647;PMS5003;17137;51.494;-0.262;2022-12-07T00:47:39;10;8;
28647;PMS5003;17137;51.494;-0.262;2022-12-07T00:48:09;10;7;
28647;PMS5003;17137;51.494;-0.262;2022-12-07T00:48:40;10;7;
28647;PMS5003;17137;51.494;-0.262;2022-12-07T00:49:10;9;6;
28647;PMS5003;17137;51.494;-0.262;2022-12-07T00:49:41;8;5;
28647;PMS5003;17137;51.494;-0.262;2022-12-07T00:50:11;8;5;
28647;PMS5003;17137;51.494;-0.262;2022-12-07T00:50:46;8;5;
28647;PMS5003;17137;51.494;-0.262;2022-12-07T00:51:18;11;7;
28647;PMS5003;17137;51.494;-0.262;2022-12-07T00:51:50;11;7;
28647;PMS5003;17137;51.494;-0.262;2022-12-07T00:52:20;11;7;
28647;PMS5003;17137;51.494;-0.262;2022-12-07T00:52:50;12;8;
28647;PMS5003;17137;51.494;-0.262;2022-12-07T00:53:21;12;8;
28647;PMS5003;17137;51.494;-0.262;2022-12-07T00:53:51;12;8;
28647;PMS5003;17137;51.494;-0.262;2022-12-07T00:54:22;12;8;
28647;PMS5003;17137;51.494;-0.262;2022-12-07T00:54:52;11;7;
28647;PMS5003;17137;51.494;-0.262;2022-12-07T00:55:22;11;7;
28647;PMS5003;17137;51.494;-0.262;2022-12-07T00:55:53;10;8;
28647;PMS5003;17137;51.494;-0.262;2022-12-07T00:56:24;11;9;
28647;PMS5003;17137;51.494;-0.262;2022-12-07T00:56:55;11;9;
28647;PMS5003;17137;51.494;-0.262;2022-12-07T00:57:26;11;9;
28647;PMS5003;17137;51.494;-0.262;2022-12-07T00:57:57;11;10;
28647;PMS5003;17137;51.494;-0.262;2022-12-07T00:58:27;11;10;
28647;PMS5003;17137;51.494;-0.262;2022-12-07T00:58:59;14;10;
28647;PMS5003;17137;51.494;-0.262;2022-12-07T00:59:31;14;11;
28647;PMS5003;17137;51.494;-0.262;2022-12-07T01:00:01;17;14;
28647;PMS5003;17137;51.494;-0.262;2022-12-07T01:00:32;17;14;
28647;PMS5003;17137;51.494;-0.262;2022-12-07T01:01:05;16;13;
28647;PMS5003;17137;51.494;-0.262;2022-12-07T01:01:37;16;13;
28647;PMS5003;17137;51.494;-0.262;2022-12-07T01:02:08;16;13;
28647;PMS5003;17137;51.494;-0.262;2022-12-07T01:02:38;17;14;
28647;PMS5003;17137;51.494;-0.262;2022-12-07T01:03:09;18;14;
28647;PMS5003;17137;51.494;-0.262;2022-12-07T01:03:42;18;14;
28647;PMS5003;17137;51.494;-0.262;2022-12-07T01:04:12;18;14;
28647;PMS5003;17137;51.494;-0.262;2022-12-07T01:04:42;18;14;
28647;PMS5003;17137;51.494;-0.262;2022-12-07T01:05:13;15;13;
28647;PMS5003;17137;51.494;-0.262;2022-12-07T01:05:48;15;13;
28647;PMS5003;17137;51.494;-0.262;2022-12-07T01:06:20;15;13;
28647;PMS5003;17137;51.494;-0.262;2022-12-07T01:06:55;13;12;
28647;PMS5003;17137;51.494;-0.262;2022-12-07T01:07:25;13;12;
28647;PMS5003;17137;51.494;-0.262;2022-12-07T01:07:55;13;12;
28647;PMS5003;17137;51.494;-0.262;2022-12-07T01:08:26;13;11;
28647;PMS5003;17137;51.494;-0.262;2022-12-07T01:08:57;14;12;
28647;PMS5003;17137;51.494;-0.262;2022-12-07T01:09:27;14;12;
28647;PMS5003;17137;51.494;-0.262;2022-12-07T01:09:58;12;12;
28647;PMS5003;17137;51.494;-0.262;2022-12-07T01:10:29;12;12;
28647;PMS5003;17137;51.494;-0.262;2022-12-07T01:10:59;12;12;
28647;PMS5003;17137;51.494;-0.262;2022-12-07T01:11:31;12;12;
28647;PMS5003;17137;51.494;-0.262;2022-12-07T01:12:02;11;11;
28647;PMS5003;17137;51.494;-0.262;2022-12-07T01:12:32;11;11;
28647;PMS5003;17137;51.494;-0.262;2022-12-07T01:13:03;10;10;
28647;PMS5003;17137;51.494;-0.262;2022-12-07T01:13:33;10;10;
28647;PMS5003;17137;51.494;-0.262;2022-12-07T01:14:04;11;11;
28647;PMS5003;17137;51.494;-0.262;2022-12-07T01:14:35;10;10;
28647;PMS5003;17137;51.494;-0.262;2022-12-07T01:15:06;10;10;
28647;PMS5003;17137;51.494;-0.262;2022-12-07T01:15:38;10;10;
28647;PMS5003;17137;51.494;-0.262;2022-12-07T01:16:09;11;10;
28647;PMS5003;17137;51.494;-0.262;2022-12-07T01:16:42;11;10;
28647;PMS5003;17137;51.494;-0.262;2022-12-07T01:17:12;11;10;
28647;PMS5003;17137;51.494;-0.262;2022-12-07T01:17:42;12;10;
28647;PMS5003;17137;51.494;-0.262;2022-12-07T01:18:13;12;10;
28647;PMS5003;17137;51.494;-0.262;2022-12-07T01:18:45;12;10;
28647;PMS5003;17137;51.494;-0.262;2022-12-07T01:19:17;12;10;
28647;PMS5003;17137;51.494;-0.262;2022-12-07T01:19:47;12;10;
28647;PMS5003;17137;51.494;-0.262;2022-12-07T01:20:18;12;10;
28647;PMS5003;17137;51.494;-0.262;2022-12-07T01:20:56;13;11;
28647;PMS5003;17137;51.494;-0.262;2022-12-07T01:21:28;13;11;
28647;PMS5003;17137;51.494;-0.262;2022-12-07T01:22:00;13;11;
28647;PMS5003;17137;51.494;-0.262;2022-12-07T01:22:30;13;12;
28647;PMS5003;17137;51.494;-0.262;2022-12-07T01:23:00;12;11;
28647;PMS5003;17137;51.494;-0.262;2022-12-07T01:23:31;12;11;
28647;PMS5003;17137;51.494;-0.262;2022-12-07T01:24:03;12;10;
28647;PMS5003;17137;51.494;-0.262;2022-12-07T01:24:35;12;10;
28647;PMS5003;17137;51.494;-0.262;2022-12-07T01:25:06;13;11;
28647;PMS5003;17137;51.494;-0.262;2022-12-07T01:25:37;12;11;
28647;PMS5003;17137;51.494;-0.262;2022-12-07T01:26:10;12;11;
28647;PMS5003;17137;51.494;-0.262;2022-12-07T01:26:41;12;11;
28647;PMS5003;17137;51.494;-0.262;2022-12-07T01:27:12;12;10;
28647;PMS5003;17137;51.494;-0.262;2022-12-07T01:27:42;12;10;
28647;PMS5003;17137;51.494;-0.262;2022-12-07T01:28:13;12;10;
28647;PMS5003;17137;51.494;-0.262;2022-12-07T01:28:43;12;10;
28647;PMS5003;17137;51.494;-0.262;2022-12-07T01:29:14;12;10;
28647;PMS5003;17137;51.494;-0.262;2022-12-07T01:29:44;12;10;
28647;PMS5003;17137;51.494;-0.262;2022-12-07T01:30:15;12;11;
28647;PMS5003;17137;51.494;-0.262;2022-12-07T01:30:45;12;11;
28647;PMS5003;17137;51.494;-0.262;2022-12-07T01:31:25;12;11;
28647;PMS5003;17137;51.494;-0.262;2022-12-07T01:31:57;9;9;
28647;PMS5003;17137;51.494;-0.262;2022-12-07T01:32:27;9;9;
28647;PMS5003;17137;51.494;-0.262;2022-12-07T01:32:58;9;9;
28647;PMS5003;17137;51.494;-0.262;2022-12-07T01:33:30;8;8;
28647;PMS5003;17137;51.494;-0.262;2022-12-07T01:34:01;9;9;
28647;PMS5003;17137;51.494;-0.262;2022-12-07T01:35:01;10;10;
28647;PMS5003;17137;51.494;-0.262;2022-12-07T01:35:33;11;11;
28647;PMS5003;17137;51.494;-0.262;2022-12-07T01:36:04;12;11;
28647;PMS5003;17137;51.494;-0.262;2022-12-07T01:36:36;12;11;
28647;PMS5003;17137;51.494;-0.262;2022-12-07T01:37:06;13;11;
28647;PMS5003;17137;51.494;-0.262;2022-12-07T01:37:36;13;12;
28647;PMS5003;17137;51.494;-0.262;2022-12-07T01:38:08;14;11;
28647;PMS5003;17137;51.494;-0.262;2022-12-07T01:38:38;15;12;
28647;PMS5003;17137;51.494;-0.262;2022-12-07T01:39:09;17;14;
28647;PMS5003;17137;51.494;-0.262;2022-12-07T01:39:39;17;15;
28647;PMS5003;17137;51.494;-0.262;2022-12-07T01:40:10;17;14;
28647;PMS5003;17137;51.494;-0.262;2022-12-07T01:40:41;15;13;
28647;PMS5003;17137;51.494;-0.262;2022-12-07T01:41:11;14;13;
28647;PMS5003;17137;51.494;-0.262;2022-12-07T01:41:42;14;13;
28647;PMS5003;17137;51.494;-0.262;2022-12-07T01:42:12;15;14;
28647;PMS5003;17137;51.494;-0.262;2022-12-07T01:42:42;14;13;
28647;PMS5003;17137;51.494;-0.262;2022-12-07T01:43:14;14;13;
28647;PMS5003;17137;51.494;-0.262;2022-12-07T01:44:21;14;13;
28647;PMS5003;17137;51.494;-0.262;2022-12-07T01:45:58;14;13;
28647;PMS5003;17137;51.494;-0.262;2022-12-07T01:46:28;14;13;
28647;PMS5003;17137;51.494;-0.262;2022-12-07T01:46:59;14;13;
28647;PMS5003;17137;51.494;-0.262;2022-12-07T01:47:31;13;12;
28647;PMS5003;17137;51.494;-0.262;2022-12-07T01:48:02;13;12;
28647;PMS5003;17137;51.494;-0.262;2022-12-07T01:48:34;13;12;
28647;PMS5003;17137;51.494;-0.262;2022-12-07T01:49:09;11;11;
28647;PMS5003;17137;51.494;-0.262;2022-12-07T01:49:43;12;12;
28647;PMS5003;17137;51.494;-0.262;2022-12-07T01:50:18;12;12;
28647;PMS5003;17137;51.494;-0.262;2022-12-07T01:50:49;12;11;
28647;PMS5003;17137;51.494;-0.262;2022-12-07T01:51:22;12;11;
28647;PMS5003;17137;51.494;-0.262;2022-12-07T01:51:54;12;11;
28647;PMS5003;17137;51.494;-0.262;2022-12-07T01:52:30;12;10;
28647;PMS5003;17137;51.494;-0.262;2022-12-07T01:53:03;12;10;
28647;PMS5003;17137;51.494;-0.262;2022-12-07T01:53:39;12;10;
28647;PMS5003;17137;51.494;-0.262;2022-12-07T01:54:13;12;10;
28647;PMS5003;17137;51.494;-0.262;2022-12-07T01:54:45;12;10;
28647;PMS5003;17137;51.494;-0.262;2022-12-07T01:55:19;12;10;
28647;PMS5003;17137;51.494;-0.262;2022-12-07T01:55:49;11;9;
28647;PMS5003;17137;51.494;-0.262;2022-12-07T01:56:23;11;9;
28647;PMS5003;17137;51.494;-0.262;2022-12-07T01:56:56;11;9;
28647;PMS5003;17137;51.494;-0.262;2022-12-07T01:57:27;9;7;
28647;PMS5003;17137;51.494;-0.262;2022-12-07T01:58:00;9;7;
28647;PMS5003;17137;51.494;-0.262;2022-12-07T01:58:30;9;7;
28647;PMS5003;17137;51.494;-0.262;2022-12-07T01:59:01;10;8;
28647;PMS5003;17137;51.494;-0.262;2022-12-07T01:59:31;10;8;
28647;PMS5003;17137;51.494;-0.262;2022-12-07T02:00:03;10;8;
28647;PMS5003;17137;51.494;-0.262;2022-12-07T02:00:35;10;8;
28647;PMS5003;17137;51.494;-0.262;2022-12-07T02:01:06;10;8;
28647;PMS5003;17137;51.494;-0.262;2022-12-07T02:01:36;10;8;
28647;PMS5003;17137;51.494;-0.262;2022-12-07T02:02:08;9;7;
28647;PMS5003;17137;51.494;-0.262;2022-12-07T02:02:47;8;6;
28647;PMS5003;17137;51.494;-0.262;2022-12-07T02:03:24;8;6;
28647;PMS5003;17137;51.494;-0.262;2022-12-07T02:03:59;8;7;
28647;PMS5003;17137;51.494;-0.262;2022-12-07T02:04:30;9;8;
28647;PMS5003;17137;51.494;-0.262;2022-12-07T02:05:01;9;8;
28647;PMS5003;17137;51.494;-0.262;2022-12-07T02:05:34;9;8;
28647;PMS5003;17137;51.494;-0.262;2022-12-07T02:06:06;9;8;
28647;PMS5003;17137;51.494;-0.262;2022-12-07T02:06:39;8;7;
28647;PMS5003;17137;51.494;-0.262;2022-12-07T02:07:12;8;6;
28647;PMS5003;17137;51.494;-0.262;2022-12-07T02:07:43;8;6;
28647;PMS5003;17137;51.494;-0.262;2022-12-07T02:08:16;9;7;
28647;PMS5003;17137;51.494;-0.262;2022-12-07T02:08:48;8;8;
28647;PMS5003;17137;51.494;-0.262;2022-12-07T02:09:18;8;8;
28647;PMS5003;17137;51.494;-0.262;2022-12-07T02:09:49;8;8;
28647;PMS5003;17137;51.494;-0.262;2022-12-07T02:10:20;7;7;
28647;PMS5003;17137;51.494;-0.262;2022-12-07T02:10:52;7;7;
28647;PMS5003;17137;51.494;-0.262;2022-12-07T02:11:22;7;7;
28647;PMS5003;17137;51.494;-0.262;2022-12-07T02:11:52;8;8;
28647;PMS5003;17137;51.494;-0.262;2022-12-07T02:12:24;8;8;
28647;PMS5003;17137;51.494;-0.262;2022-12-07T02:12:55;8;8;
28647;PMS5003;17137;51.494;-0.262;2022-12-07T02:13:29;8;8;
28647;PMS5003;17137;51.494;-0.262;2022-12-07T02:14:02;8;8;
28647;PMS5003;17137;51.494;-0.262;2022-12-07T02:14:32;8;8;
28647;PMS5003;17137;51.494;-0.262;2022-12-07T02:15:03;8;8;
28647;PMS5003;17137;51.494;-0.262;2022-12-07T02:15:37;8;8;
28647;PMS5003;17137;51.494;-0.262;2022-12-07T02:16:20;8;8;
28647;PMS5003;17137;51.494;-0.262;2022-12-07T02:17:00;9;9;
28647;PMS5003;17137;51.494;-0.262;2022-12-07T02:17:42;9;9;
28647;PMS5003;17137;51.494;-0.262;2022-12-07T02:18:23;9;9;
28647;PMS5003;17137;51.494;-0.262;2022-12-07T02:19:13;10;8;
28647;PMS5003;17137;51.494;-0.262;2022-12-07T02:20:11;10;8;
28647;PMS5003;17137;51.494;-0.262;2022-12-07T02:20:57;10;8;
28647;PMS5003;17137;51.494;-0.262;2022-12-07T02:21:36;9;8;
28647;PMS5003;17137;51.494;-0.262;2022-12-07T02:22:17;9;8;
28647;PMS5003;17137;51.494;-0.262;2022-12-07T02:23:34;9;8;
28647;PMS5003;17137;51.494;-0.262;2022-12-07T02:24:14;8;7;
28647;PMS5003;17137;51.494;-0.262;2022-12-07T02:24:55;8;7;
28647;PMS5003;17137;51.494;-0.262;2022-12-07T02:25:36;8;7;
28647;PMS5003;17137;51.494;-0.262;2022-12-07T02:29:08;9;8;
28647;PMS5003;17137;51.494;-0.262;2022-12-07T02:29:44;9;8;
28647;PMS5003;17137;51.494;-0.262;2022-12-07T02:30:20;10;8;
28647;PMS5003;17137;51.494;-0.262;2022-12-07T02:30:51;10;8;
28647;PMS5003;17137;51.494;-0.262;2022-12-07T02:31:25;10;8;
28647;PMS5003;17137;51.494;-0.262;2022-12-07T02:32:01;10;8;
28647;PMS5003;17137;51.494;-0.262;2022-12-07T02:32:39;9;7;
28647;PMS5003;17137;51.494;-0.262;2022-12-07T02:33:14;9;7;
28647;PMS5003;17137;51.494;-0.262;2022-12-07T02:33:50;8;6;
28647;PMS5003;17137;51.494;-0.262;2022-12-07T02:34:29;9;7;
28647;PMS5003;17137;51.494;-0.262;2022-12-07T02:35:07;9;7;
28647;PMS5003;17137;51.494;-0.262;2022-12-07T02:35:42;9;7;
28647;PMS5003;17137;51.494;-0.262;2022-12-07T02:36:18;9;7;
28647;PMS5003;17137;51.494;-0.262;2022-12-07T02:36:55;9;7;
28647;PMS5003;17137;51.494;-0.262;2022-12-07T02:37:33;9;7;
28647;PMS5003;17137;51.494;-0.262;2022-12-07T02:38:11;9;7;
28647;PMS5003;17137;51.494;-0.262;2022-12-07T02:38:47;8;6;
28647;PMS5003;17137;51.494;-0.262;2022-12-07T02:39:26;8;6;
28647;PMS5003;17137;51.494;-0.262;2022-12-07T02:40:05;8;6;
28647;PMS5003;17137;51.494;-0.262;2022-12-07T02:40:44;8;6;
28647;PMS5003;17137;51.494;-0.262;2022-12-07T02:41:21;8;7;
28647;PMS5003;17137;51.494;-0.262;2022-12-07T02:41:56;8;7;
28647;PMS5003;17137;51.494;-0.262;2022-12-07T02:42:33;8;7;
28647;PMS5003;17137;51.494;-0.262;2022-12-07T02:43:08;7;6;
28647;PMS5003;17137;51.494;-0.262;2022-12-07T02:43:45;7;6;
28647;PMS5003;17137;51.494;-0.262;2022-12-07T02:44:21;7;6;
28647;PMS5003;17137;51.494;-0.262;2022-12-07T02:44:55;7;6;
28647;PMS5003;17137;51.494;-0.262;2022-12-07T02:45:26;7;6;
28647;PMS5003;17137;51.494;-0.262;2022-12-07T02:46:01;7;6;
28647;PMS5003;17137;51.494;-0.262;2022-12-07T02:46:36;6;6;
28647;PMS5003;17137;51.494;-0.262;2022-12-07T02:47:10;7;7;
28647;PMS5003;17137;51.494;-0.262;2022-12-07T02:47:44;7;7;
28647;PMS5003;17137;51.494;-0.262;2022-12-07T02:48:18;6;6;
28647;PMS5003;17137;51.494;-0.262;2022-12-07T02:48:50;6;6;
28647;PMS5003;17137;51.494;-0.262;2022-12-07T02:49:22;6;6;
28647;PMS5003;17137;51.494;-0.262;2022-12-07T02:49:55;6;6;
28647;PMS5003;17137;51.494;-0.262;2022-12-07T02:50:25;6;6;
28647;PMS5003;17137;51.494;-0.262;2022-12-07T02:50:56;5;5;
28647;PMS5003;17137;51.494;-0.262;2022-12-07T02:51:29;6;6;
28647;PMS5003;17137;51.494;-0.262;2022-12-07T02:52:00;6;6;
28647;PMS5003;17137;51.494;-0.262;2022-12-07T02:52:31;7;7;
28647;PMS5003;17137;51.494;-0.262;2022-12-07T02:53:01;7;7;
28647;PMS5003;17137;51.494;-0.262;2022-12-07T02:53:32;7;7;
28647;PMS5003;17137;51.494;-0.262;2022-12-07T02:54:07;7;7;
28647;PMS5003;17137;51.494;-0.262;2022-12-07T02:54:41;6;6;
28647;PMS5003;17137;51.494;-0.262;2022-12-07T02:55:11;6;6;
28647;PMS5003;17137;51.494;-0.262;2022-12-07T02:55:48;6;6;
28647;PMS5003;17137;51.494;-0.262;2022-12-07T02:56:20;8;6;
28647;PMS5003;17137;51.494;-0.262;2022-12-07T02:57:00;8;6;
28647;PMS5003;17137;51.494;-0.262;2022-12-07T02:57:44;8;6;
28647;PMS5003;17137;51.494;-0.262;2022-12-07T02:58:26;10;7;
28647;PMS5003;17137;51.494;-0.262;2022-12-07T02:59:07;9;6;
28647;PMS5003;17137;51.494;-0.262;2022-12-07T02:59:49;9;6;
28647;PMS5003;17137;51.494;-0.262;2022-12-07T03:00:30;10;6;
28647;PMS5003;17137;51.494;-0.262;2022-12-07T03:01:08;11;7;
28647;PMS5003;17137;51.494;-0.262;2022-12-07T03:01:47;11;7;
28647;PMS5003;17137;51.494;-0.262;2022-12-07T03:02:28;13;8;
28647;PMS5003;17137;51.494;-0.262;2022-12-07T03:03:09;13;8;
28647;PMS5003;17137;51.494;-0.262;2022-12-07T03:03:41;13;8;
28647;PMS5003;17137;51.494;-0.262;2022-12-07T03:04:23;15;8;
28647;PMS5003;17137;51.494;-0.262;2022-12-07T03:05:06;15;8;
28647;PMS5003;17137;51.494;-0.262;2022-12-07T03:06:00;14;7;
28647;PMS5003;17137;51.494;-0.262;2022-12-07T03:06:39;14;7;
28647;PMS5003;17137;51.494;-0.262;2022-12-07T03:07:20;14;7;
28647;PMS5003;17137;51.494;-0.262;2022-12-07T03:08:00;14;7;
28647;PMS5003;17137;51.494;-0.262;2022-12-07T03:08:37;15;8;
28647;PMS5003;17137;51.494;-0.262;2022-12-07T03:09:14;15;8;
28647;PMS5003;17137;51.494;-0.262;2022-12-07T03:09:51;15;8;
28647;PMS5003;17137;51.494;-0.262;2022-12-07T03:10:32;14;7;
28647;PMS5003;17137;51.494;-0.262;2022-12-07T03:11:10;14;7;
28647;PMS5003;17137;51.494;-0.262;2022-12-07T03:11:44;14;7;
28647;PMS5003;17137;51.494;-0.262;2022-12-07T03:12:19;15;8;
28647;PMS5003;17137;51.494;-0.262;2022-12-07T03:12:56;15;8;
28647;PMS5003;17137;51.494;-0.262;2022-12-07T03:13:33;15;8;
28647;PMS5003;17137;51.494;-0.262;2022-12-07T03:14:11;16;9;
28647;PMS5003;17137;51.494;-0.262;2022-12-07T03:14:47;17;10;
28647;PMS5003;17137;51.494;-0.262;2022-12-07T03:15:30;17;10;
28647;PMS5003;17137;51.494;-0.262;2022-12-07T03:16:05;15;9;
28647;PMS5003;17137;51.494;-0.262;2022-12-07T03:16:41;15;9;
28647;PMS5003;17137;51.494;-0.262;2022-12-07T03:17:19;15;9;
28647;PMS5003;17137;51.494;-0.262;2022-12-07T03:17:53;14;10;
28647;PMS5003;17137;51.494;-0.262;2022-12-07T03:18:30;14;10;
28647;PMS5003;17137;51.494;-0.262;2022-12-07T03:19:08;13;9;
28647;PMS5003;17137;51.494;-0.262;2022-12-07T03:19:41;12;9;
28647;PMS5003;17137;51.494;-0.262;2022-12-07T03:20:15;12;9;
28647;PMS5003;17137;51.494;-0.262;2022-12-07T03:20:52;12;9;
28647;PMS5003;17137;51.494;-0.262;2022-12-07T03:21:26;11;9;
28647;PMS5003;17137;51.494;-0.262;2022-12-07T03:22:01;11;9;
28647;PMS5003;17137;51.494;-0.262;2022-12-07T03:23:04;12;11;
28647;PMS5003;17137;51.494;-0.262;2022-12-07T03:23:37;12;11;
28647;PMS5003;17137;51.494;-0.262;2022-12-07T03:24:11;12;11;
28647;PMS5003;17137;51.494;-0.262;2022-12-07T03:24:47;11;10;
28647;PMS5003;17137;51.494;-0.262;2022-12-07T03:25:22;11;10;
28647;PMS5003;17137;51.494;-0.262;2022-12-07T03:25:54;11;10;
28647;PMS5003;17137;51.494;-0.262;2022-12-07T03:26:30;11;10;
28647;PMS5003;17137;51.494;-0.262;2022-12-07T03:27:14;12;11;
28647;PMS5003;17137;51.494;-0.262;2022-12-07T03:27:51;12;11;
28647;PMS5003;17137;51.494;-0.262;2022-12-07T03:28:24;13;11;
28647;PMS5003;17137;51.494;-0.262;2022-12-07T03:29:00;13;11;
28647;PMS5003;17137;51.494;-0.262;2022-12-07T03:29:36;13;11;
28647;PMS5003;17137;51.494;-0.262;2022-12-07T03:30:13;12;11;
28647;PMS5003;17137;51.494;-0.262;2022-12-07T03:30:47;12;11;
28647;PMS5003;17137;51.494;-0.262;2022-12-07T03:31:22;12;11;
28647;PMS5003;17137;51.494;-0.262;2022-12-07T03:31:58;12;10;
28647;PMS5003;17137;51.494;-0.262;2022-12-07T03:32:33;12;10;
28647;PMS5003;17137;51.494;-0.262;2022-12-07T03:33:07;12;10;
28647;PMS5003;17137;51.494;-0.262;2022-12-07T03:33:42;13;10;
28647;PMS5003;17137;51.494;-0.262;2022-12-07T03:34:19;13;10;
28647;PMS5003;17137;51.494;-0.262;2022-12-07T03:34:56;13;10;
28647;PMS5003;17137;51.494;-0.262;2022-12-07T03:35:32;13;10;
28647;PMS5003;17137;51.494;-0.262;2022-12-07T03:36:08;13;10;
28647;PMS5003;17137;51.494;-0.262;2022-12-07T03:36:44;13;10;
28647;PMS5003;17137;51.494;-0.262;2022-12-07T03:37:20;14;10;
28647;PMS5003;17137;51.494;-0.262;2022-12-07T03:37:59;14;10;
28647;PMS5003;17137;51.494;-0.262;2022-12-07T03:38:37;14;10;
28647;PMS5003;17137;51.494;-0.262;2022-12-07T03:39:13;15;9;
28647;PMS5003;17137;51.494;-0.262;2022-12-07T03:39:56;15;9;
28647;PMS5003;17137;51.494;-0.262;2022-12-07T03:40:33;15;9;
28647;PMS5003;17137;51.494;-0.262;2022-12-07T03:41:09;14;9;
28647;PMS5003;17137;51.494;-0.262;2022-12-07T03:41:45;13;8;
28647;PMS5003;17137;51.494;-0.262;2022-12-07T03:42:16;13;8;
28647;PMS5003;17137;51.494;-0.262;2022-12-07T03:42:46;13;9;
28647;PMS5003;17137;51.494;-0.262;2022-12-07T03:43:17;14;10;
28647;PMS5003;17137;51.494;-0.262;2022-12-07T03:43:48;14;10;
28647;PMS5003;17137;51.494;-0.262;2022-12-07T03:44:19;14;10;
28647;PMS5003;17137;51.494;-0.262;2022-12-07T03:44:50;14;10;
28647;PMS5003;17137;51.494;-0.262;2022-12-07T03:45:21;14;10;
28647;PMS5003;17137;51.494;-0.262;2022-12-07T03:46:02;14;9;